createdAt,value
2022-12-05T00:00:10.675Z,0.00
2022-12-05T00:01:10.654Z,0.00
2022-12-05T00:02:10.708Z,0.00
2022-12-05T00:03:10.654Z,0.00
2022-12-05T00:04:10.717Z,0.00
2022-12-05T00:05:10.618Z,0.00
2022-12-05T00:06:10.607Z,0.00
2022-12-05T00:07:10.584Z,0.00
2022-12-05T00:08:10.609Z,0.00
2022-12-05T00:09:10.585Z,0.00
2022-12-05T00:10:10.556Z,0.00
2022-12-05T00:11:10.544Z,0.00
2022-12-05T00:12:12.269Z,0.00
2022-12-05T00:13:10.529Z,0.00
2022-12-05T00:14:10.523Z,0.00
2022-12-05T00:15:10.526Z,0.00
2022-12-05T00:16:10.518Z,0.00
2022-12-05T00:17:10.525Z,0.00
2022-12-05T00:18:10.477Z,0.00
2022-12-05T00:19:10.458Z,0.00
2022-12-05T00:20:10.457Z,0.00
2022-12-05T00:21:10.455Z,0.00
2022-12-05T00:22:10.551Z,0.00
2022-12-05T00:23:10.424Z,0.00
2022-12-05T00:24:10.450Z,0.00
2022-12-05T00:25:10.405Z,0.00
2022-12-05T00:26:10.429Z,0.00
2022-12-05T00:27:10.396Z,0.00
2022-12-05T00:28:10.406Z,0.00
2022-12-05T00:29:10.364Z,0.00
2022-12-05T00:30:10.336Z,0.00
2022-12-05T00:31:10.346Z,0.00
2022-12-05T00:32:10.407Z,0.00
2022-12-05T00:33:10.307Z,0.00
2022-12-05T00:34:10.309Z,0.00
2022-12-05T00:35:10.279Z,0.00
2022-12-05T00:36:10.279Z,0.00
2022-12-05T00:37:10.325Z,0.00
2022-12-05T00:38:10.248Z,0.00
2022-12-05T00:39:10.241Z,0.00
2022-12-05T00:40:10.237Z,0.00
2022-12-05T00:41:10.219Z,0.00
2022-12-05T00:42:10.206Z,0.00
2022-12-05T00:43:10.259Z,0.00
2022-12-05T00:44:10.187Z,0.00
2022-12-05T00:45:10.168Z,0.00
2022-12-05T00:46:10.278Z,0.00
2022-12-05T00:47:10.162Z,0.00
2022-12-05T00:48:10.138Z,0.00
2022-12-05T00:49:10.175Z,0.00
2022-12-05T00:50:10.127Z,0.00
2022-12-05T00:51:10.098Z,0.00
2022-12-05T00:52:10.120Z,0.00
2022-12-05T00:53:10.078Z,0.00
2022-12-05T00:54:10.080Z,0.00
2022-12-05T00:55:10.100Z,0.00
2022-12-05T00:56:10.056Z,0.00
2022-12-05T00:57:10.067Z,0.00
2022-12-05T00:58:10.020Z,0.00
2022-12-05T00:59:10.042Z,0.00
2022-12-05T01:00:10.023Z,0.00
2022-12-05T01:01:10.150Z,0.00
2022-12-05T01:02:09.998Z,0.00
2022-12-05T01:03:10.066Z,0.00
2022-12-05T01:04:09.960Z,0.00
2022-12-05T01:05:09.959Z,0.00
2022-12-05T01:06:09.949Z,0.00
2022-12-05T01:07:09.964Z,0.00
2022-12-05T01:08:10.004Z,0.00
2022-12-05T01:09:09.937Z,0.00
2022-12-05T01:10:09.916Z,0.00
2022-12-05T01:11:09.900Z,0.00
2022-12-05T01:12:09.873Z,0.00
2022-12-05T01:13:09.916Z,0.00
2022-12-05T01:14:09.877Z,0.00
2022-12-05T01:15:09.848Z,0.00
2022-12-05T01:16:09.850Z,0.00
2022-12-05T01:17:09.904Z,0.00
2022-12-05T01:18:09.830Z,0.00
2022-12-05T01:19:09.831Z,0.00
2022-12-05T01:20:09.780Z,0.00
2022-12-05T01:21:09.799Z,0.00
2022-12-05T01:22:09.813Z,0.00
2022-12-05T01:23:09.759Z,0.00
2022-12-05T01:24:09.790Z,0.00
2022-12-05T01:25:09.735Z,0.00
2022-12-05T01:26:09.731Z,0.00
2022-12-05T01:27:09.724Z,0.00
2022-12-05T01:28:09.736Z,0.00
2022-12-05T01:29:09.749Z,0.00
2022-12-05T01:30:09.739Z,0.00
2022-12-05T01:31:09.680Z,0.00
2022-12-05T01:32:09.715Z,0.00
2022-12-05T01:33:09.671Z,0.00
2022-12-05T01:34:09.660Z,0.00
2022-12-05T01:35:09.635Z,0.00
2022-12-05T01:36:09.658Z,0.00
2022-12-05T01:37:09.612Z,0.00
2022-12-05T01:38:10.522Z,0.00
2022-12-05T01:39:09.578Z,0.00
2022-12-05T01:40:09.575Z,0.00
2022-12-05T01:41:09.552Z,0.00
2022-12-05T01:42:09.573Z,0.00
2022-12-05T01:43:09.541Z,0.00
2022-12-05T01:44:09.524Z,0.00
2022-12-05T01:45:09.512Z,0.00
2022-12-05T01:46:09.527Z,0.00
2022-12-05T01:47:09.548Z,0.00
2022-12-05T01:48:09.482Z,0.00
2022-12-05T01:49:09.489Z,0.00
2022-12-05T01:50:09.504Z,0.00
2022-12-05T01:51:09.456Z,0.00
2022-12-05T01:52:09.431Z,0.00
2022-12-05T01:53:09.464Z,0.00
2022-12-05T01:54:09.419Z,0.00
2022-12-05T01:55:09.407Z,0.00
2022-12-05T01:56:09.433Z,0.00
2022-12-05T01:57:09.383Z,0.00
2022-12-05T01:58:09.383Z,0.00
2022-12-05T01:59:09.392Z,0.00
2022-12-05T02:00:09.363Z,0.00
2022-12-05T02:01:09.368Z,0.00
2022-12-05T02:02:09.385Z,0.00
2022-12-05T02:03:09.323Z,0.00
2022-12-05T02:04:09.312Z,0.00
2022-12-05T02:05:09.333Z,0.00
2022-12-05T02:06:09.306Z,0.00
2022-12-05T02:07:09.265Z,0.00
2022-12-05T02:08:09.378Z,0.00
2022-12-05T02:09:09.258Z,0.00
2022-12-05T02:10:09.257Z,0.00
2022-12-05T02:11:09.254Z,0.00
2022-12-05T02:12:09.225Z,0.00
2022-12-05T02:13:09.213Z,0.00
2022-12-05T02:14:09.213Z,0.00
2022-12-05T02:15:09.190Z,0.00
2022-12-05T02:16:09.203Z,0.00
2022-12-05T02:17:09.185Z,0.00
2022-12-05T02:18:09.156Z,0.00
2022-12-05T02:19:09.156Z,0.00
2022-12-05T02:20:09.144Z,0.00
2022-12-05T02:21:09.115Z,0.00
2022-12-05T02:22:09.115Z,0.00
2022-12-05T02:23:09.128Z,0.00
2022-12-05T02:24:09.089Z,0.00
2022-12-05T02:25:09.076Z,0.00
2022-12-05T02:26:09.069Z,0.00
2022-12-05T02:27:09.055Z,0.00
2022-12-05T02:28:09.090Z,0.00
2022-12-05T02:29:09.027Z,0.00
2022-12-05T02:30:09.026Z,0.00
2022-12-05T02:31:09.083Z,0.00
2022-12-05T02:32:09.004Z,0.00
2022-12-05T02:33:08.988Z,0.00
2022-12-05T02:34:09.006Z,0.00
2022-12-05T02:35:08.967Z,0.00
2022-12-05T02:36:08.956Z,0.00
2022-12-05T02:37:08.946Z,0.00
2022-12-05T02:38:08.936Z,0.00
2022-12-05T02:39:08.930Z,0.00
2022-12-05T02:40:08.966Z,0.00
2022-12-05T02:41:08.927Z,0.00
2022-12-05T02:42:08.893Z,0.00
2022-12-05T02:43:08.888Z,0.00
2022-12-05T02:44:08.876Z,0.00
2022-12-05T02:45:08.858Z,0.00
2022-12-05T02:46:08.966Z,0.00
2022-12-05T02:47:08.826Z,0.00
2022-12-05T02:48:08.826Z,0.00
2022-12-05T02:49:08.837Z,0.00
2022-12-05T02:50:08.810Z,0.00
2022-12-05T02:51:08.787Z,0.00
2022-12-05T02:52:08.796Z,0.00
2022-12-05T02:53:08.772Z,0.00
2022-12-05T02:54:08.762Z,0.00
2022-12-05T02:55:08.757Z,0.00
2022-12-05T02:56:08.735Z,0.00
2022-12-05T02:57:08.770Z,0.00
2022-12-05T02:58:08.717Z,0.00
2022-12-05T02:59:08.717Z,0.00
2022-12-05T03:00:08.697Z,0.00
2022-12-05T03:01:08.736Z,0.00
2022-12-05T03:02:08.669Z,0.00
2022-12-05T03:03:08.688Z,0.00
2022-12-05T03:04:08.690Z,0.00
2022-12-05T03:05:08.639Z,0.00
2022-12-05T03:06:08.627Z,0.00
2022-12-05T03:07:08.619Z,0.00
2022-12-05T03:08:08.669Z,0.00
2022-12-05T03:09:08.632Z,0.00
2022-12-05T03:10:08.593Z,0.00
2022-12-05T03:11:08.577Z,0.00
2022-12-05T03:12:08.570Z,0.00
2022-12-05T03:13:08.578Z,0.00
2022-12-05T03:14:08.590Z,0.00
2022-12-05T03:15:08.542Z,0.00
2022-12-05T03:16:08.511Z,0.00
2022-12-05T03:17:08.558Z,0.00
2022-12-05T03:18:08.518Z,0.00
2022-12-05T03:19:08.491Z,0.00
2022-12-05T03:20:08.516Z,0.00
2022-12-05T03:21:08.480Z,0.00
2022-12-05T03:22:08.463Z,0.00
2022-12-05T03:23:08.446Z,0.00
2022-12-05T03:24:08.433Z,0.00
2022-12-05T03:25:08.429Z,0.00
2022-12-05T03:26:08.440Z,0.00
2022-12-05T03:27:08.418Z,0.00
2022-12-05T03:28:08.400Z,0.00
2022-12-05T03:29:08.382Z,0.00
2022-12-05T03:30:08.372Z,0.00
2022-12-05T03:31:08.417Z,0.00
2022-12-05T03:32:08.378Z,0.00
2022-12-05T03:33:08.333Z,0.00
2022-12-05T03:34:08.332Z,0.00
2022-12-05T03:35:08.312Z,0.00
2022-12-05T03:36:08.297Z,0.00
2022-12-05T03:37:08.302Z,0.00
2022-12-05T03:38:08.293Z,0.00
2022-12-05T03:39:08.275Z,0.00
2022-12-05T03:40:08.261Z,0.00
2022-12-05T03:41:08.250Z,0.00
2022-12-05T03:42:08.242Z,0.00
2022-12-05T03:43:08.252Z,0.00
2022-12-05T03:44:08.210Z,0.00
2022-12-05T03:45:08.202Z,0.00
2022-12-05T03:46:08.279Z,0.00
2022-12-05T03:47:08.185Z,0.00
2022-12-05T03:48:08.178Z,0.00
2022-12-05T03:49:08.195Z,0.00
2022-12-05T03:50:08.173Z,0.00
2022-12-05T03:51:08.142Z,0.00
2022-12-05T03:52:08.122Z,0.00
2022-12-05T03:53:20.579Z,0.00
2022-12-05T03:54:09.169Z,0.00
2022-12-05T03:55:08.095Z,0.00
2022-12-05T03:56:08.085Z,0.00
2022-12-05T03:57:08.068Z,0.00
2022-12-05T03:58:08.064Z,0.00
2022-12-05T03:59:08.058Z,0.00
2022-12-05T04:00:08.055Z,0.00
2022-12-05T04:01:08.082Z,0.00
2022-12-05T04:02:08.023Z,0.00
2022-12-05T04:03:08.062Z,0.00
2022-12-05T04:04:08.000Z,0.00
2022-12-05T04:05:07.991Z,0.00
2022-12-05T04:06:08.003Z,0.00
2022-12-05T04:07:07.983Z,0.00
2022-12-05T04:08:08.038Z,0.00
2022-12-05T04:09:11.129Z,0.00
2022-12-05T04:10:08.935Z,0.00
2022-12-05T04:11:07.923Z,0.00
2022-12-05T04:12:07.903Z,0.00
2022-12-05T04:13:07.935Z,0.00
2022-12-05T04:14:07.874Z,0.00
2022-12-05T04:15:07.873Z,0.00
2022-12-05T04:16:07.938Z,0.00
2022-12-05T04:17:07.855Z,0.00
2022-12-05T04:18:07.834Z,0.00
2022-12-05T04:19:07.869Z,0.00
2022-12-05T04:20:07.827Z,0.00
2022-12-05T04:21:07.822Z,0.00
2022-12-05T04:22:07.798Z,0.00
2022-12-05T04:23:07.795Z,0.00
2022-12-05T04:24:07.774Z,0.00
2022-12-05T04:25:07.922Z,0.00
2022-12-05T04:26:07.755Z,0.00
2022-12-05T04:27:07.744Z,0.00
2022-12-05T04:28:07.749Z,0.00
2022-12-05T04:29:07.749Z,0.00
2022-12-05T04:30:07.748Z,0.00
2022-12-05T04:31:07.757Z,0.00
2022-12-05T04:32:07.695Z,0.00
2022-12-05T04:33:07.675Z,0.00
2022-12-05T04:34:07.680Z,0.00
2022-12-05T04:35:07.656Z,0.00
2022-12-05T04:36:07.668Z,0.00
2022-12-05T04:37:07.634Z,0.00
2022-12-05T04:38:07.615Z,0.00
2022-12-05T04:39:08.476Z,0.00
2022-12-05T04:40:07.632Z,0.00
2022-12-05T04:41:07.629Z,0.00
2022-12-05T04:42:07.578Z,0.00
2022-12-05T04:43:07.577Z,0.00
2022-12-05T04:44:07.571Z,0.00
2022-12-05T04:45:07.547Z,0.00
2022-12-05T04:46:07.581Z,0.00
2022-12-05T04:47:07.545Z,0.00
2022-12-05T04:48:07.506Z,0.00
2022-12-05T04:49:07.509Z,0.00
2022-12-05T04:50:07.549Z,0.00
2022-12-05T04:51:07.486Z,0.00
2022-12-05T04:52:08.974Z,0.00
2022-12-05T04:53:09.107Z,0.00
2022-12-05T04:54:07.603Z,0.00
2022-12-05T04:55:07.470Z,0.00
2022-12-05T04:56:07.456Z,0.00
2022-12-05T04:57:07.450Z,0.00
2022-12-05T04:58:07.498Z,0.00
2022-12-05T04:59:07.417Z,0.00
2022-12-05T05:00:08.196Z,0.00
2022-12-05T05:01:07.523Z,0.00
2022-12-05T05:02:07.448Z,0.00
2022-12-05T05:03:07.429Z,0.00
2022-12-05T05:04:07.432Z,0.00
2022-12-05T05:05:13.652Z,0.00
2022-12-05T05:06:08.417Z,0.00
2022-12-05T05:07:07.463Z,0.00
2022-12-05T05:08:07.476Z,0.00
2022-12-05T05:09:07.467Z,0.00
2022-12-05T05:10:07.469Z,0.00
2022-12-05T05:11:07.335Z,0.00
2022-12-05T05:12:07.379Z,0.00
2022-12-05T05:13:07.330Z,0.00
2022-12-05T05:14:07.300Z,0.00
2022-12-05T05:15:07.368Z,0.00
2022-12-05T05:16:07.430Z,0.00
2022-12-05T05:17:07.275Z,0.00
2022-12-05T05:18:07.227Z,0.00
2022-12-05T05:19:07.284Z,0.00
2022-12-05T05:20:07.247Z,0.00
2022-12-05T05:21:07.251Z,0.00
2022-12-05T05:22:07.251Z,0.00
2022-12-05T05:23:07.208Z,0.00
2022-12-05T05:24:07.149Z,0.00
2022-12-05T05:25:07.201Z,0.00
2022-12-05T05:26:07.135Z,0.00
2022-12-05T05:27:07.214Z,0.00
2022-12-05T05:28:07.161Z,0.00
2022-12-05T05:29:07.096Z,0.00
2022-12-05T05:30:07.111Z,0.00
2022-12-05T05:31:07.186Z,0.00
2022-12-05T05:32:07.081Z,0.00
2022-12-05T05:33:07.175Z,0.00
2022-12-05T05:34:09.707Z,0.00
2022-12-05T05:35:07.068Z,0.00
2022-12-05T05:36:07.047Z,0.00
2022-12-05T05:37:07.044Z,0.00
2022-12-05T05:38:07.012Z,0.00
2022-12-05T05:39:07.051Z,0.00
2022-12-05T05:40:10.925Z,0.00
2022-12-05T05:41:06.972Z,0.00
2022-12-05T05:42:06.943Z,0.00
2022-12-05T05:43:07.089Z,0.00
2022-12-05T05:44:06.932Z,0.00
2022-12-05T05:45:07.024Z,0.00
2022-12-05T05:46:07.042Z,0.00
2022-12-05T05:47:06.935Z,0.00
2022-12-05T05:48:06.824Z,0.00
2022-12-05T05:49:06.813Z,0.00
2022-12-05T05:50:06.813Z,0.00
2022-12-05T05:51:06.801Z,0.00
2022-12-05T05:52:06.785Z,0.00
2022-12-05T05:53:06.754Z,0.00
2022-12-05T05:54:06.814Z,0.00
2022-12-05T05:55:06.751Z,0.00
2022-12-05T05:56:06.760Z,0.00
2022-12-05T05:57:06.711Z,0.00
2022-12-05T05:58:06.701Z,0.00
2022-12-05T05:59:06.708Z,0.00
2022-12-05T06:00:06.682Z,0.00
2022-12-05T06:01:06.681Z,0.00
2022-12-05T06:02:06.682Z,0.00
2022-12-05T06:03:06.771Z,0.00
2022-12-05T06:04:06.736Z,0.00
2022-12-05T06:05:06.625Z,0.00
2022-12-05T06:06:06.613Z,0.00
2022-12-05T06:07:06.604Z,0.00
2022-12-05T06:08:06.673Z,0.00
2022-12-05T06:09:06.595Z,0.00
2022-12-05T06:10:06.564Z,0.00
2022-12-05T06:11:06.553Z,0.00
2022-12-05T06:12:06.549Z,0.00
2022-12-05T06:13:06.554Z,0.00
2022-12-05T06:14:06.525Z,0.00
2022-12-05T06:15:06.542Z,0.00
2022-12-05T06:16:06.589Z,0.00
2022-12-05T06:17:06.493Z,0.00
2022-12-05T06:18:06.476Z,0.00
2022-12-05T06:19:06.499Z,0.00
2022-12-05T06:20:06.448Z,0.00
2022-12-05T06:21:07.243Z,0.00
2022-12-05T06:22:06.436Z,0.00
2022-12-05T06:23:06.414Z,0.00
2022-12-05T06:24:06.418Z,0.00
2022-12-05T06:25:06.435Z,0.00
2022-12-05T06:26:06.375Z,0.00
2022-12-05T06:27:06.366Z,0.00
2022-12-05T06:28:06.368Z,0.00
2022-12-05T06:29:06.395Z,0.00
2022-12-05T06:30:06.335Z,0.00
2022-12-05T06:31:06.388Z,0.00
2022-12-05T06:32:06.427Z,0.00
2022-12-05T06:33:06.296Z,0.00
2022-12-05T06:34:06.285Z,0.00
2022-12-05T06:35:06.277Z,0.00
2022-12-05T06:36:06.271Z,0.00
2022-12-05T06:37:06.276Z,0.00
2022-12-05T06:38:06.236Z,0.00
2022-12-05T06:39:06.242Z,0.00
2022-12-05T06:40:06.220Z,0.00
2022-12-05T06:41:06.206Z,0.00
2022-12-05T06:42:06.235Z,0.00
2022-12-05T06:43:06.218Z,0.00
2022-12-05T06:44:06.196Z,0.00
2022-12-05T06:45:06.167Z,0.00
2022-12-05T06:46:06.218Z,0.00
2022-12-05T06:47:06.177Z,0.00
2022-12-05T06:48:06.174Z,4.00
2022-12-05T06:49:06.148Z,4.00
2022-12-05T06:50:06.110Z,0.00
2022-12-05T06:51:06.118Z,0.00
2022-12-05T06:52:06.076Z,4.00
2022-12-05T06:53:06.067Z,4.00
2022-12-05T06:54:06.089Z,4.00
2022-12-05T06:55:06.052Z,8.00
2022-12-05T06:56:06.037Z,8.00
2022-12-05T06:57:06.028Z,12.00
2022-12-05T06:58:06.010Z,12.00
2022-12-05T06:59:06.018Z,12.00
2022-12-05T07:00:07.260Z,12.00
2022-12-05T07:01:06.051Z,12.00
2022-12-05T07:02:06.045Z,16.00
2022-12-05T07:03:05.969Z,12.00
2022-12-05T07:04:05.974Z,12.00
2022-12-05T07:05:05.960Z,16.00
2022-12-05T07:06:05.945Z,16.00
2022-12-05T07:07:05.918Z,20.00
2022-12-05T07:08:05.992Z,20.00
2022-12-05T07:09:05.880Z,20.00
2022-12-05T07:10:05.954Z,24.00
2022-12-05T07:11:05.879Z,24.00
2022-12-05T07:12:05.881Z,28.00
2022-12-05T07:13:05.857Z,32.00
2022-12-05T07:14:14.729Z,40.00
2022-12-05T07:15:06.819Z,44.00
2022-12-05T07:16:05.877Z,44.00
2022-12-05T07:17:05.822Z,48.00
2022-12-05T07:18:05.789Z,52.00
2022-12-05T07:19:05.863Z,60.00
2022-12-05T07:20:06.708Z,68.00
2022-12-05T07:21:13.441Z,76.00
2022-12-05T07:22:10.770Z,80.00
2022-12-05T07:23:06.732Z,88.00
2022-12-05T07:24:05.747Z,88.00
2022-12-05T07:25:05.702Z,92.00
2022-12-05T07:26:05.714Z,92.00
2022-12-05T07:27:05.680Z,92.00
2022-12-05T07:28:05.754Z,92.00
2022-12-05T07:29:05.687Z,100.00
2022-12-05T07:30:05.656Z,104.00
2022-12-05T07:31:05.631Z,104.00
2022-12-05T07:32:05.811Z,108.00
2022-12-05T07:33:05.611Z,112.00
2022-12-05T07:34:05.652Z,112.00
2022-12-05T07:35:05.583Z,116.00
2022-12-05T07:36:05.593Z,124.00
2022-12-05T07:37:05.562Z,128.00
2022-12-05T07:38:05.551Z,132.00
2022-12-05T07:39:05.543Z,132.00
2022-12-05T07:40:05.566Z,132.00
2022-12-05T07:41:10.192Z,128.00
2022-12-05T07:42:06.512Z,128.00
2022-12-05T07:43:05.503Z,120.00
2022-12-05T07:44:05.616Z,116.00
2022-12-05T07:45:05.475Z,116.00
2022-12-05T07:46:05.530Z,112.00
2022-12-05T07:47:05.442Z,120.00
2022-12-05T07:48:05.496Z,128.00
2022-12-05T07:49:05.428Z,136.00
2022-12-05T07:50:05.423Z,144.00
2022-12-05T07:51:05.412Z,164.00
2022-12-05T07:52:05.423Z,188.00
2022-12-05T07:53:05.384Z,216.00
2022-12-05T07:54:05.364Z,244.00
2022-12-05T07:55:05.365Z,248.00
2022-12-05T07:56:05.364Z,232.00
2022-12-05T07:57:05.362Z,224.00
2022-12-05T07:58:05.363Z,220.00
2022-12-05T07:59:05.359Z,236.00
2022-12-05T08:00:05.313Z,248.00
2022-12-05T08:01:05.362Z,252.00
2022-12-05T08:02:05.325Z,252.00
2022-12-05T08:03:05.335Z,264.00
2022-12-05T08:04:05.285Z,284.00
2022-12-05T08:05:05.243Z,312.00
2022-12-05T08:06:05.235Z,336.00
2022-12-05T08:07:05.225Z,352.00
2022-12-05T08:08:05.286Z,368.00
2022-12-05T08:09:05.386Z,388.00
2022-12-05T08:10:05.227Z,388.00
2022-12-05T08:11:05.183Z,368.00
2022-12-05T08:12:05.175Z,356.00
2022-12-05T08:13:05.166Z,340.00
2022-12-05T08:14:05.154Z,308.00
2022-12-05T08:15:05.386Z,276.00
2022-12-05T08:16:05.125Z,248.00
2022-12-05T08:17:05.226Z,224.00
2022-12-05T08:18:05.105Z,220.00
2022-12-05T08:19:05.095Z,236.00
2022-12-05T08:20:05.095Z,244.00
2022-12-05T08:21:05.093Z,248.00
2022-12-05T08:22:05.057Z,260.00
2022-12-05T08:23:05.056Z,260.00
2022-12-05T08:24:05.047Z,252.00
2022-12-05T08:25:05.037Z,260.00
2022-12-05T08:26:05.008Z,284.00
2022-12-05T08:27:05.027Z,324.00
2022-12-05T08:28:04.996Z,380.00
2022-12-05T08:29:04.975Z,416.00
2022-12-05T08:30:04.967Z,408.00
2022-12-05T08:31:05.078Z,384.00
2022-12-05T08:32:04.936Z,376.00
2022-12-05T08:33:04.929Z,384.00
2022-12-05T08:34:04.947Z,404.00
2022-12-05T08:35:04.908Z,412.00
2022-12-05T08:36:04.899Z,404.00
2022-12-05T08:37:05.038Z,380.00
2022-12-05T08:38:04.877Z,356.00
2022-12-05T08:39:04.867Z,364.00
2022-12-05T08:40:04.859Z,392.00
2022-12-05T08:41:04.867Z,412.00
2022-12-05T08:42:04.848Z,412.00
2022-12-05T08:43:04.826Z,432.00
2022-12-05T08:44:04.807Z,488.00
2022-12-05T08:45:04.798Z,552.00
2022-12-05T08:46:04.842Z,628.00
2022-12-05T08:47:04.775Z,736.00
2022-12-05T08:48:04.798Z,836.00
2022-12-05T08:49:04.748Z,908.00
2022-12-05T08:50:04.738Z,908.00
2022-12-05T08:51:04.719Z,848.00
2022-12-05T08:52:04.727Z,880.00
2022-12-05T08:53:04.719Z,932.00
2022-12-05T08:54:04.734Z,1060.00
2022-12-05T08:55:04.697Z,1128.00
2022-12-05T08:56:04.667Z,1092.00
2022-12-05T08:57:04.673Z,900.00
2022-12-05T08:58:04.654Z,808.00
2022-12-05T08:59:06.061Z,860.00
2022-12-05T09:00:04.737Z,936.00
2022-12-05T09:01:04.664Z,972.00
2022-12-05T09:02:04.698Z,932.00
2022-12-05T09:03:04.680Z,912.00
2022-12-05T09:04:04.758Z,900.00
2022-12-05T09:05:25.809Z,928.00
2022-12-05T09:06:05.558Z,996.00
2022-12-05T09:07:04.550Z,1128.00
2022-12-05T09:08:04.637Z,1228.00
2022-12-05T09:09:04.550Z,1272.00
2022-12-05T09:10:04.532Z,1316.00
2022-12-05T09:11:04.547Z,1356.00
2022-12-05T09:12:04.513Z,1288.00
2022-12-05T09:13:04.488Z,1176.00
2022-12-05T09:14:04.470Z,1032.00
2022-12-05T09:15:04.470Z,904.00
2022-12-05T09:16:04.541Z,852.00
2022-12-05T09:17:04.452Z,824.00
2022-12-05T09:18:04.423Z,868.00
2022-12-05T09:19:04.420Z,908.00
2022-12-05T09:20:04.411Z,856.00
2022-12-05T09:21:04.402Z,780.00
2022-12-05T09:22:04.401Z,752.00
2022-12-05T09:23:04.378Z,720.00
2022-12-05T09:24:04.363Z,728.00
2022-12-05T09:25:04.352Z,760.00
2022-12-05T09:26:04.331Z,804.00
2022-12-05T09:27:04.343Z,804.00
2022-12-05T09:28:04.363Z,744.00
2022-12-05T09:29:04.313Z,660.00
2022-12-05T09:30:04.293Z,624.00
2022-12-05T09:31:04.365Z,660.00
2022-12-05T09:32:04.329Z,688.00
2022-12-05T09:33:04.263Z,760.00
2022-12-05T09:34:04.280Z,820.00
2022-12-05T09:35:04.232Z,800.00
2022-12-05T09:36:04.222Z,788.00
2022-12-05T09:37:23.168Z,764.00
2022-12-05T09:38:05.201Z,728.00
2022-12-05T09:39:04.194Z,716.00
2022-12-05T09:40:04.218Z,712.00
2022-12-05T09:41:04.173Z,732.00
2022-12-05T09:42:04.163Z,748.00
2022-12-05T09:43:04.146Z,756.00
2022-12-05T09:44:04.154Z,796.00
2022-12-05T09:45:04.142Z,828.00
2022-12-05T09:46:04.173Z,848.00
2022-12-05T09:47:04.103Z,880.00
2022-12-05T09:48:04.097Z,860.00
2022-12-05T09:49:04.099Z,840.00
2022-12-05T09:50:04.072Z,784.00
2022-12-05T09:51:04.067Z,744.00
2022-12-05T09:52:04.083Z,700.00
2022-12-05T09:53:04.035Z,656.00
2022-12-05T09:54:04.025Z,664.00
2022-12-05T09:55:04.007Z,688.00
2022-12-05T09:56:04.026Z,700.00
2022-12-05T09:57:04.011Z,716.00
2022-12-05T09:58:04.019Z,772.00
2022-12-05T09:59:03.971Z,844.00
2022-12-05T10:00:04.001Z,880.00
2022-12-05T10:01:03.937Z,868.00
2022-12-05T10:02:04.037Z,868.00
2022-12-05T10:03:03.916Z,864.00
2022-12-05T10:04:03.935Z,852.00
2022-12-05T10:05:04.217Z,848.00
2022-12-05T10:06:03.900Z,780.00
2022-12-05T10:07:03.928Z,700.00
2022-12-05T10:08:03.961Z,632.00
2022-12-05T10:09:03.876Z,604.00
2022-12-05T10:10:03.881Z,576.00
2022-12-05T10:11:03.833Z,576.00
2022-12-05T10:12:03.828Z,600.00
2022-12-05T10:13:03.808Z,644.00
2022-12-05T10:14:03.797Z,692.00
2022-12-05T10:15:03.825Z,772.00
2022-12-05T10:16:03.872Z,860.00
2022-12-05T10:17:03.757Z,956.00
2022-12-05T10:18:03.768Z,1056.00
2022-12-05T10:19:03.746Z,1136.00
2022-12-05T10:20:03.747Z,1252.00
2022-12-05T10:21:03.754Z,1332.00
2022-12-05T10:22:03.712Z,1368.00
2022-12-05T10:23:03.738Z,1352.00
2022-12-05T10:24:03.687Z,1348.00
2022-12-05T10:25:03.667Z,1336.00
2022-12-05T10:26:03.667Z,1236.00
2022-12-05T10:27:03.674Z,1152.00
2022-12-05T10:28:03.638Z,1076.00
2022-12-05T10:29:03.644Z,964.00
2022-12-05T10:30:03.618Z,884.00
2022-12-05T10:31:03.631Z,856.00
2022-12-05T10:32:03.598Z,836.00
2022-12-05T10:33:07.964Z,816.00
2022-12-05T10:34:04.573Z,820.00
2022-12-05T10:35:03.559Z,844.00
2022-12-05T10:36:03.550Z,868.00
2022-12-05T10:37:03.539Z,868.00
2022-12-05T10:38:03.548Z,860.00
2022-12-05T10:39:08.293Z,872.00
2022-12-05T10:40:04.526Z,824.00
2022-12-05T10:41:03.489Z,812.00
2022-12-05T10:42:03.480Z,824.00
2022-12-05T10:43:03.480Z,872.00
2022-12-05T10:44:03.495Z,928.00
2022-12-05T10:45:03.441Z,992.00
2022-12-05T10:46:03.491Z,1080.00
2022-12-05T10:47:03.495Z,1168.00
2022-12-05T10:48:03.421Z,1248.00
2022-12-05T10:49:03.439Z,1292.00
2022-12-05T10:50:03.392Z,1292.00
2022-12-05T10:51:03.398Z,1268.00
2022-12-05T10:52:03.370Z,1236.00
2022-12-05T10:53:03.379Z,1264.00
2022-12-05T10:54:03.351Z,1320.00
2022-12-05T10:55:03.375Z,1388.00
2022-12-05T10:56:30.541Z,1484.00
2022-12-05T10:57:04.320Z,1552.00
2022-12-05T10:58:03.309Z,1576.00
2022-12-05T10:59:03.295Z,1624.00
2022-12-05T11:00:03.282Z,1636.00
2022-12-05T11:01:03.292Z,1604.00
2022-12-05T11:02:03.344Z,1552.00
2022-12-05T11:03:03.252Z,1504.00
2022-12-05T11:04:03.232Z,1436.00
2022-12-05T11:05:03.417Z,1368.00
2022-12-05T11:06:03.220Z,1316.00
2022-12-05T11:07:03.226Z,1248.00
2022-12-05T11:08:03.241Z,1228.00
2022-12-05T11:09:05.068Z,1244.00
2022-12-05T11:10:03.175Z,1292.00
2022-12-05T11:11:03.165Z,1336.00
2022-12-05T11:12:03.162Z,1308.00
2022-12-05T11:13:03.139Z,1200.00
2022-12-05T11:14:03.126Z,1100.00
2022-12-05T11:15:03.117Z,1048.00
2022-12-05T11:16:03.152Z,1032.00
2022-12-05T11:17:03.083Z,1040.00
2022-12-05T11:18:03.101Z,1024.00
2022-12-05T11:19:03.070Z,992.00
2022-12-05T11:20:03.059Z,976.00
2022-12-05T11:21:03.043Z,956.00
2022-12-05T11:22:03.049Z,924.00
2022-12-05T11:23:03.029Z,896.00
2022-12-05T11:24:03.031Z,872.00
2022-12-05T11:25:02.995Z,868.00
2022-12-05T11:26:03.013Z,872.00
2022-12-05T11:27:02.974Z,856.00
2022-12-05T11:28:02.963Z,844.00
2022-12-05T11:29:02.978Z,880.00
2022-12-05T11:30:02.995Z,944.00
2022-12-05T11:31:03.002Z,964.00
2022-12-05T11:32:02.914Z,932.00
2022-12-05T11:33:02.917Z,900.00
2022-12-05T11:34:02.898Z,916.00
2022-12-05T11:35:02.927Z,916.00
2022-12-05T11:36:02.895Z,888.00
2022-12-05T11:37:02.866Z,844.00
2022-12-05T11:38:02.846Z,844.00
2022-12-05T11:39:02.847Z,856.00
2022-12-05T11:40:02.834Z,844.00
2022-12-05T11:41:02.817Z,832.00
2022-12-05T11:42:02.826Z,820.00
2022-12-05T11:43:02.797Z,772.00
2022-12-05T11:44:02.804Z,716.00
2022-12-05T11:45:02.766Z,668.00
2022-12-05T11:46:02.763Z,668.00
2022-12-05T11:47:02.774Z,696.00
2022-12-05T11:48:02.767Z,728.00
2022-12-05T11:49:02.727Z,784.00
2022-12-05T11:50:02.721Z,804.00
2022-12-05T11:51:02.716Z,788.00
2022-12-05T11:52:02.690Z,812.00
2022-12-05T11:53:02.692Z,840.00
2022-12-05T11:54:02.697Z,860.00
2022-12-05T11:55:05.323Z,896.00
2022-12-05T11:56:02.657Z,944.00
2022-12-05T11:57:02.652Z,984.00
2022-12-05T11:58:02.657Z,992.00
2022-12-05T11:59:02.609Z,980.00
2022-12-05T12:00:02.662Z,964.00
2022-12-05T12:01:02.581Z,972.00
2022-12-05T12:02:02.638Z,996.00
2022-12-05T12:03:02.642Z,1024.00
2022-12-05T12:04:02.558Z,1032.00
2022-12-05T12:05:02.543Z,1028.00
2022-12-05T12:06:02.561Z,992.00
2022-12-05T12:07:02.543Z,924.00
2022-12-05T12:08:02.569Z,844.00
2022-12-05T12:09:02.501Z,776.00
2022-12-05T12:10:06.966Z,784.00
2022-12-05T12:11:03.510Z,828.00
2022-12-05T12:12:02.463Z,848.00
2022-12-05T12:13:02.463Z,856.00
2022-12-05T12:14:02.439Z,888.00
2022-12-05T12:15:02.655Z,912.00
2022-12-05T12:16:07.956Z,932.00
2022-12-05T12:17:03.473Z,952.00
2022-12-05T12:18:02.432Z,976.00
2022-12-05T12:19:02.390Z,980.00
2022-12-05T12:20:02.383Z,916.00
2022-12-05T12:21:02.359Z,868.00
2022-12-05T12:22:02.347Z,836.00
2022-12-05T12:23:02.343Z,820.00
2022-12-05T12:24:02.350Z,788.00
2022-12-05T12:25:02.313Z,748.00
2022-12-05T12:26:02.303Z,692.00
2022-12-05T12:27:02.291Z,652.00
2022-12-05T12:28:04.716Z,628.00
2022-12-05T12:29:02.317Z,600.00
2022-12-05T12:30:02.263Z,584.00
2022-12-05T12:31:02.251Z,568.00
2022-12-05T12:32:02.310Z,544.00
2022-12-05T12:33:02.242Z,536.00
2022-12-05T12:34:02.921Z,532.00
2022-12-05T12:35:03.251Z,528.00
2022-12-05T12:36:02.194Z,540.00
2022-12-05T12:37:02.190Z,568.00
2022-12-05T12:38:02.172Z,604.00
2022-12-05T12:39:02.221Z,628.00
2022-12-05T12:40:02.150Z,628.00
2022-12-05T12:41:02.225Z,608.00
2022-12-05T12:42:03.172Z,596.00
2022-12-05T12:43:02.147Z,588.00
2022-12-05T12:44:02.104Z,604.00
2022-12-05T12:45:02.382Z,632.00
2022-12-05T12:46:06.574Z,676.00
2022-12-05T12:47:03.094Z,708.00
2022-12-05T12:48:02.504Z,764.00
2022-12-05T12:49:02.422Z,840.00
2022-12-05T12:50:02.075Z,904.00
2022-12-05T12:51:02.056Z,928.00
2022-12-05T12:52:02.009Z,924.00
2022-12-05T12:53:02.024Z,940.00